PWSweather.com
Personal Weather Stations
Station Observations
J24K28P63
Vysocina, PocatkyCZ 39464

VysocinaPocatkyCZ 39464

Lat: 49.2594238, Lon: 15.2331769

Elevation: 2011

Station Type: Vantage Pro2+

http://meteo-jirkalina.com

High Low Average
Temperature 77.5°F25.3°C 54.2°F12.3°C 65.8°F18.8°C
Dew Point 54.2°F12.3°C 36.7°F2.6°C 46.7°F8.2°C
Winds 14.9 mph 24.0 kmh 2.0 mph 3.2 kmh 7.0 mph ESE11.3 kmh ESE
Wind Gusts 26.0 mph41.8 kmh 3.0 mph4.8 kmh 12.0 mph19.3 kmh
Humidity 84% 32% 53%
Pressure 30.12 in1020.0 mb 30.05 in1017.6 mb -
Precipitation 0.00 in0.0 mm - -
Hour Temp Dew Point Humidity Winds Wind Gusts Pressure Precip Precip Rate Daily Precip Total
12:00 AM 56.3°F13.5°C 45.1°F7.3°C 66% 13.2 mph E21.2 kmh E 18.0 mph29.0 kmh 30.10 in1019.3 mb - 0.00 in0.0 mm 0.00 in0.0 mm
12:30 AM 56.6°F13.7°C 44.6°F7.0°C 64% 13.9 mph SE22.4 kmh SE 18.0 mph29.0 kmh 30.10 in1019.3 mb - 0.00 in0.0 mm 0.00 in0.0 mm
01:00 AM 56.6°F13.7°C 44.6°F7.0°C 64% 11.6 mph SE18.7 kmh SE 17.0 mph27.4 kmh 30.10 in1019.3 mb - 0.00 in0.0 mm 0.00 in0.0 mm
01:30 AM 56.3°F13.5°C 45.1°F7.3°C 66% 11.1 mph SE17.9 kmh SE 16.0 mph25.7 kmh 30.09 in1019.0 mb - 0.00 in0.0 mm 0.00 in0.0 mm
02:00 AM 55.9°F13.3°C 46.3°F7.9°C 70% 11.5 mph E18.5 kmh E 18.0 mph29.0 kmh 30.09 in1019.0 mb - 0.00 in0.0 mm 0.00 in0.0 mm
02:30 AM 55.9°F13.3°C 46.3°F7.9°C 70% 9.1 mph SE14.6 kmh SE 15.0 mph24.1 kmh 30.09 in1019.0 mb - 0.00 in0.0 mm 0.00 in0.0 mm
03:00 AM 55.7°F13.2°C 46.8°F8.2°C 72% 7.0 mph SE11.3 kmh SE 12.0 mph19.3 kmh 30.09 in1019.0 mb - 0.00 in0.0 mm 0.00 in0.0 mm
04:00 AM 56.2°F13.4°C 45.4°F7.4°C 67% 8.8 mph SSE14.2 kmh SSE 14.0 mph22.5 kmh 30.09 in1019.0 mb - 0.00 in0.0 mm 0.00 in0.0 mm
04:30 AM 55.6°F13.1°C 45.6°F7.6°C 69% 7.5 mph SE12.1 kmh SE 15.0 mph24.1 kmh 30.08 in1018.6 mb - 0.00 in0.0 mm 0.00 in0.0 mm
05:00 AM 55.1°F12.8°C 45.9°F7.7°C 71% 9.8 mph ESE15.8 kmh ESE 13.0 mph20.9 kmh 30.08 in1018.6 mb - 0.00 in0.0 mm 0.00 in0.0 mm
05:30 AM 54.8°F12.7°C 46.3°F7.9°C 73% 10.8 mph ESE17.4 kmh ESE 15.0 mph24.1 kmh 30.08 in1018.6 mb - 0.00 in0.0 mm 0.00 in0.0 mm
06:00 AM 54.8°F12.7°C 45.9°F7.7°C 72% 8.7 mph ENE14.0 kmh ENE 13.0 mph20.9 kmh 30.08 in1018.6 mb - 0.00 in0.0 mm 0.00 in0.0 mm
06:30 AM 54.2°F12.3°C 46.1°F7.8°C 74% 10.6 mph SSE17.1 kmh SSE 13.0 mph20.9 kmh 30.08 in1018.6 mb - 0.00 in0.0 mm 0.00 in0.0 mm
06:40 AM 54.9°F12.7°C 50.2°F10.1°C 84% 5.0 mph E8.0 kmh E 9.0 mph14.5 kmh 30.11 in1019.6 mb - 0.00 in0.0 mm 0.00 in0.0 mm
06:50 AM 55.5°F13.1°C 50.4°F10.2°C 83% 6.0 mph E9.7 kmh E 9.0 mph14.5 kmh 30.11 in1019.6 mb - 0.00 in0.0 mm 0.00 in0.0 mm
07:00 AM 55.8°F13.2°C 50.4°F10.2°C 82% 5.0 mph E8.0 kmh E 10.0 mph16.1 kmh 30.11 in1019.6 mb - 0.00 in0.0 mm 0.00 in0.0 mm
07:10 AM 56.2°F13.4°C 50.8°F10.4°C 82% 6.0 mph E9.7 kmh E 8.0 mph12.9 kmh 30.11 in1019.6 mb - 0.00 in0.0 mm 0.00 in0.0 mm
07:20 AM 56.9°F13.8°C 50.8°F10.4°C 80% 6.0 mph ENE9.7 kmh ENE 7.0 mph11.3 kmh 30.11 in1019.6 mb - 0.00 in0.0 mm 0.00 in0.0 mm
07:30 AM 54.8°F12.7°C 46.3°F7.9°C 73% 5.7 mph SE9.2 kmh SE 8.0 mph12.9 kmh 30.08 in1018.6 mb - 0.00 in0.0 mm 0.00 in0.0 mm
07:40 AM 58.2°F14.6°C 51.4°F10.8°C 78% 5.0 mph ENE8.0 kmh ENE 10.0 mph16.1 kmh 30.11 in1019.6 mb - 0.00 in0.0 mm 0.00 in0.0 mm
07:50 AM 58.8°F14.9°C 51.6°F10.9°C 77% 6.0 mph E9.7 kmh E 6.0 mph9.7 kmh 30.12 in1020.0 mb - 0.00 in0.0 mm 0.00 in0.0 mm
08:00 AM 59.3°F15.2°C 51.7°F10.9°C 76% 6.0 mph E9.7 kmh E 9.0 mph14.5 kmh 30.12 in1020.0 mb - 0.00 in0.0 mm 0.00 in0.0 mm
08:10 AM 59.8°F15.4°C 51.9°F11.1°C 75% 3.0 mph E4.8 kmh E 9.0 mph14.5 kmh 30.12 in1020.0 mb - 0.00 in0.0 mm 0.00 in0.0 mm
08:20 AM 60.3°F15.7°C 52.0°F11.1°C 74% 6.0 mph NE9.7 kmh NE 8.0 mph12.9 kmh 30.12 in1020.0 mb - 0.00 in0.0 mm 0.00 in0.0 mm
08:30 AM 57.8°F14.3°C 44.0°F6.7°C 60% 8.4 mph E13.5 kmh E 14.0 mph22.5 kmh 30.09 in1019.0 mb - 0.00 in0.0 mm 0.00 in0.0 mm
08:40 AM 61.5°F16.4°C 52.7°F11.5°C 73% 3.0 mph E4.8 kmh E 5.0 mph8.0 kmh 30.12 in1020.0 mb - 0.00 in0.0 mm 0.00 in0.0 mm
08:50 AM 62.3°F16.8°C 52.8°F11.6°C 71% 2.0 mph E3.2 kmh E 3.0 mph4.8 kmh 30.12 in1020.0 mb - 0.00 in0.0 mm 0.00 in0.0 mm
09:00 AM 63.1°F17.3°C 52.8°F11.6°C 69% 5.0 mph E8.0 kmh E 12.0 mph19.3 kmh 30.12 in1020.0 mb - 0.00 in0.0 mm 0.00 in0.0 mm
09:10 AM 63.4°F17.4°C 52.6°F11.4°C 68% 6.0 mph E9.7 kmh E 9.0 mph14.5 kmh 30.12 in1020.0 mb - 0.00 in0.0 mm 0.00 in0.0 mm
09:20 AM 63.8°F17.7°C 53.0°F11.7°C 68% 7.0 mph ESE11.3 kmh ESE 8.0 mph12.9 kmh 30.12 in1020.0 mb - 0.00 in0.0 mm 0.00 in0.0 mm
09:30 AM 60.1°F15.6°C 42.4°F5.8°C 52% 10.6 mph E17.1 kmh E 26.0 mph41.8 kmh 30.09 in1019.0 mb - 0.00 in0.0 mm 0.00 in0.0 mm
09:40 AM 64.8°F18.2°C 52.7°F11.5°C 65% 6.0 mph ENE9.7 kmh ENE 9.0 mph14.5 kmh 30.11 in1019.6 mb - 0.00 in0.0 mm 0.00 in0.0 mm
09:50 AM 66.1°F18.9°C 53.1°F11.7°C 63% 3.0 mph E4.8 kmh E 8.0 mph12.9 kmh 30.11 in1019.6 mb - 0.00 in0.0 mm 0.00 in0.0 mm
10:00 AM 67.6°F19.8°C 53.6°F12.0°C 61% 7.0 mph NE11.3 kmh NE 12.0 mph19.3 kmh 30.11 in1019.6 mb - 0.00 in0.0 mm 0.00 in0.0 mm
10:10 AM 69.0°F20.6°C 54.1°F12.3°C 59% 5.0 mph ENE8.0 kmh ENE 10.0 mph16.1 kmh 30.11 in1019.6 mb - 0.00 in0.0 mm 0.00 in0.0 mm
10:20 AM 69.1°F20.6°C 53.7°F12.1°C 58% 3.0 mph E4.8 kmh E 8.0 mph12.9 kmh 30.11 in1019.6 mb - 0.00 in0.0 mm 0.00 in0.0 mm
10:30 AM 63.4°F17.4°C 41.7°F5.4°C 45% 14.9 mph SE24.0 kmh SE 22.0 mph35.4 kmh 30.09 in1019.0 mb - 0.00 in0.0 mm 0.00 in0.0 mm
10:40 AM 71.7°F22.1°C 54.2°F12.3°C 54% 5.0 mph ENE8.0 kmh ENE 7.0 mph11.3 kmh 30.10 in1019.3 mb - 0.00 in0.0 mm 0.00 in0.0 mm
10:50 AM 72.8°F22.7°C 50.8°F10.4°C 46% 3.0 mph SE4.8 kmh SE 9.0 mph14.5 kmh 30.10 in1019.3 mb - 0.00 in0.0 mm 0.00 in0.0 mm
11:00 AM 73.5°F23.1°C 49.0°F9.4°C 42% 6.0 mph SE9.7 kmh SE 10.0 mph16.1 kmh 30.10 in1019.3 mb - 0.00 in0.0 mm 0.00 in0.0 mm
11:10 AM 74.0°F23.3°C 49.5°F9.7°C 42% 7.0 mph ESE11.3 kmh ESE 12.0 mph19.3 kmh 30.09 in1019.0 mb - 0.00 in0.0 mm 0.00 in0.0 mm
11:20 AM 74.8°F23.8°C 48.8°F9.3°C 40% 5.0 mph E8.0 kmh E 13.0 mph20.9 kmh 30.09 in1019.0 mb - 0.00 in0.0 mm 0.00 in0.0 mm
11:30 AM 66.0°F18.9°C 40.3°F4.6°C 39% 9.4 mph SE15.1 kmh SE 15.0 mph24.1 kmh 30.08 in1018.6 mb - 0.00 in0.0 mm 0.00 in0.0 mm
11:40 AM 75.8°F24.3°C 47.7°F8.7°C 37% 10.0 mph E16.1 kmh E 14.0 mph22.5 kmh 30.08 in1018.6 mb - 0.00 in0.0 mm 0.00 in0.0 mm
11:50 AM 75.5°F24.2°C 47.4°F8.6°C 37% 5.0 mph E8.0 kmh E 9.0 mph14.5 kmh 30.08 in1018.6 mb - 0.00 in0.0 mm 0.00 in0.0 mm
12:00 PM 75.9°F24.4°C 47.8°F8.8°C 37% 3.0 mph ESE4.8 kmh ESE 12.0 mph19.3 kmh 30.07 in1018.3 mb - 0.00 in0.0 mm 0.00 in0.0 mm
12:10 PM 76.1°F24.5°C 46.4°F8.0°C 35% 7.0 mph ESE11.3 kmh ESE 10.0 mph16.1 kmh 30.07 in1018.3 mb - 0.00 in0.0 mm 0.00 in0.0 mm
12:20 PM 76.4°F24.7°C 46.7°F8.2°C 35% 7.0 mph E11.3 kmh E 14.0 mph22.5 kmh 30.07 in1018.3 mb - 0.00 in0.0 mm 0.00 in0.0 mm
12:30 PM 67.6°F19.8°C 37.5°F3.1°C 33% 13.6 mph E21.9 kmh E 16.0 mph25.7 kmh 30.07 in1018.3 mb - 0.00 in0.0 mm 0.00 in0.0 mm
12:40 PM 76.4°F24.7°C 46.0°F7.8°C 34% 7.0 mph ESE11.3 kmh ESE 10.0 mph16.1 kmh 30.06 in1017.9 mb - 0.00 in0.0 mm 0.00 in0.0 mm
12:50 PM 76.7°F24.8°C 46.2°F7.9°C 34% 7.0 mph E11.3 kmh E 17.0 mph27.4 kmh 30.06 in1017.9 mb - 0.00 in0.0 mm 0.00 in0.0 mm
01:00 PM 76.7°F24.8°C 45.4°F7.4°C 33% 10.0 mph ESE16.1 kmh ESE 14.0 mph22.5 kmh 30.06 in1017.9 mb - 0.00 in0.0 mm 0.00 in0.0 mm
01:10 PM 77.0°F25.0°C 44.9°F7.2°C 32% 8.0 mph E12.9 kmh E 12.0 mph19.3 kmh 30.06 in1017.9 mb - 0.00 in0.0 mm 0.00 in0.0 mm
01:20 PM 77.1°F25.1°C 45.8°F7.7°C 33% 6.0 mph ESE9.7 kmh ESE 10.0 mph16.1 kmh 30.06 in1017.9 mb - 0.00 in0.0 mm 0.00 in0.0 mm
01:30 PM 67.8°F19.9°C 37.6°F3.1°C 33% 13.1 mph ESE21.1 kmh ESE 20.0 mph32.2 kmh 30.05 in1017.6 mb - 0.00 in0.0 mm 0.00 in0.0 mm
01:40 PM 77.2°F25.1°C 45.9°F7.7°C 33% 7.0 mph E11.3 kmh E 13.0 mph20.9 kmh 30.06 in1017.9 mb - 0.00 in0.0 mm 0.00 in0.0 mm
01:50 PM 77.2°F25.1°C 45.9°F7.7°C 33% 8.0 mph ESE12.9 kmh ESE 16.0 mph25.7 kmh 30.05 in1017.6 mb - 0.00 in0.0 mm 0.00 in0.0 mm
02:00 PM 77.3°F25.2°C 45.9°F7.7°C 33% 3.0 mph ESE4.8 kmh ESE 10.0 mph16.1 kmh 30.05 in1017.6 mb - 0.00 in0.0 mm 0.00 in0.0 mm
02:10 PM 77.5°F25.3°C 46.9°F8.3°C 34% 6.0 mph ESE9.7 kmh ESE 14.0 mph22.5 kmh 30.05 in1017.6 mb - 0.00 in0.0 mm 0.00 in0.0 mm
02:20 PM 77.4°F25.2°C 46.8°F8.2°C 34% 5.0 mph E8.0 kmh E 9.0 mph14.5 kmh 30.05 in1017.6 mb - 0.00 in0.0 mm 0.00 in0.0 mm
02:30 PM 67.7°F19.8°C 36.7°F2.6°C 32% 11.5 mph ESE18.5 kmh ESE 18.0 mph29.0 kmh 30.05 in1017.6 mb - 0.00 in0.0 mm 0.00 in0.0 mm
02:40 PM 76.9°F24.9°C 47.9°F8.8°C 36% 6.0 mph ESE9.7 kmh ESE 10.0 mph16.1 kmh 30.05 in1017.6 mb - 0.00 in0.0 mm 0.00 in0.0 mm
02:50 PM 76.8°F24.9°C 47.8°F8.8°C 36% 6.0 mph ESE9.7 kmh ESE 9.0 mph14.5 kmh 30.05 in1017.6 mb - 0.00 in0.0 mm 0.00 in0.0 mm
03:00 PM 77.1°F25.1°C 47.3°F8.5°C 35% 2.0 mph ESE3.2 kmh ESE 9.0 mph14.5 kmh 30.05 in1017.6 mb - 0.00 in0.0 mm 0.00 in0.0 mm
03:10 PM 76.9°F24.9°C 47.9°F8.8°C 36% 9.0 mph E14.5 kmh E 14.0 mph22.5 kmh 30.05 in1017.6 mb - 0.00 in0.0 mm 0.00 in0.0 mm
03:20 PM 76.2°F24.6°C 48.0°F8.9°C 37% 6.0 mph E9.7 kmh E 10.0 mph16.1 kmh 30.05 in1017.6 mb - 0.00 in0.0 mm 0.00 in0.0 mm
03:30 PM 66.9°F19.4°C 38.3°F3.5°C 35% 12.7 mph SSE20.4 kmh SSE 16.0 mph25.7 kmh 30.05 in1017.6 mb - 0.00 in0.0 mm 0.00 in0.0 mm
03:40 PM 75.7°F24.3°C 47.6°F8.7°C 37% 8.0 mph E12.9 kmh E 12.0 mph19.3 kmh 30.05 in1017.6 mb - 0.00 in0.0 mm 0.00 in0.0 mm
03:50 PM 75.3°F24.1°C 47.9°F8.8°C 38% 7.0 mph ENE11.3 kmh ENE 13.0 mph20.9 kmh 30.05 in1017.6 mb - 0.00 in0.0 mm 0.00 in0.0 mm
04:00 PM 75.0°F23.9°C 48.4°F9.1°C 39% 6.0 mph E9.7 kmh E 10.0 mph16.1 kmh 30.05 in1017.6 mb - 0.00 in0.0 mm 0.00 in0.0 mm
04:10 PM 74.5°F23.6°C 49.3°F9.6°C 41% 6.0 mph ENE9.7 kmh ENE 10.0 mph16.1 kmh 30.05 in1017.6 mb - 0.00 in0.0 mm 0.00 in0.0 mm
04:20 PM 73.9°F23.3°C 49.4°F9.7°C 42% 5.0 mph ESE8.0 kmh ESE 9.0 mph14.5 kmh 30.05 in1017.6 mb - 0.00 in0.0 mm 0.00 in0.0 mm
04:30 PM 65.0°F18.3°C 40.7°F4.8°C 41% 8.7 mph SE14.0 kmh SE 15.0 mph24.1 kmh 30.05 in1017.6 mb - 0.00 in0.0 mm 0.00 in0.0 mm
04:40 PM 72.8°F22.7°C 49.6°F9.8°C 44% 6.0 mph SE9.7 kmh SE 13.0 mph20.9 kmh 30.05 in1017.6 mb - 0.00 in0.0 mm 0.00 in0.0 mm
04:50 PM 72.3°F22.4°C 49.2°F9.6°C 44% 6.0 mph ESE9.7 kmh ESE 13.0 mph20.9 kmh 30.06 in1017.9 mb - 0.00 in0.0 mm 0.00 in0.0 mm
05:00 PM 71.8°F22.1°C 49.3°F9.6°C 45% 3.0 mph E4.8 kmh E 8.0 mph12.9 kmh 30.06 in1017.9 mb - 0.00 in0.0 mm 0.00 in0.0 mm
05:30 PM 62.4°F16.9°C 40.8°F4.9°C 45% 11.7 mph ESE18.8 kmh ESE 17.0 mph27.4 kmh 30.06 in1017.9 mb - 0.00 in0.0 mm 0.00 in0.0 mm
06:00 PM 61.8°F16.6°C 40.8°F4.9°C 46% 6.6 mph E10.6 kmh E 10.0 mph16.1 kmh 30.06 in1017.9 mb - 0.00 in0.0 mm 0.00 in0.0 mm
06:30 PM 60.9°F16.1°C 41.1°F5.1°C 48% 8.7 mph SE14.0 kmh SE 11.0 mph17.7 kmh 30.07 in1018.3 mb - 0.00 in0.0 mm 0.00 in0.0 mm
07:00 PM 61.2°F16.2°C 41.3°F5.2°C 48% 9.7 mph E15.6 kmh E 21.0 mph33.8 kmh 30.07 in1018.3 mb - 0.00 in0.0 mm 0.00 in0.0 mm
07:30 PM 61.0°F16.1°C 40.6°F4.8°C 47% 8.2 mph ESE13.2 kmh ESE 13.0 mph20.9 kmh 30.07 in1018.3 mb - 0.00 in0.0 mm 0.00 in0.0 mm
08:00 PM 60.5°F15.8°C 40.2°F4.6°C 47% 10.0 mph E16.1 kmh E 20.0 mph32.2 kmh 30.07 in1018.3 mb - 0.00 in0.0 mm 0.00 in0.0 mm
08:30 PM 60.4°F15.8°C 40.1°F4.5°C 47% 12.3 mph SSE19.8 kmh SSE 19.0 mph30.6 kmh 30.07 in1018.3 mb - 0.00 in0.0 mm 0.00 in0.0 mm
09:00 PM 59.9°F15.5°C 41.2°F5.1°C 50% 10.4 mph SSE16.7 kmh SSE 17.0 mph27.4 kmh 30.08 in1018.6 mb - 0.00 in0.0 mm 0.00 in0.0 mm
09:30 PM 59.2°F15.1°C 42.1°F5.6°C 53% 6.1 mph ENE9.8 kmh ENE 15.0 mph24.1 kmh 30.08 in1018.6 mb - 0.00 in0.0 mm 0.00 in0.0 mm
10:00 PM 58.7°F14.8°C 42.6°F5.9°C 55% 8.1 mph SE13.0 kmh SE 15.0 mph24.1 kmh 30.08 in1018.6 mb - 0.00 in0.0 mm 0.00 in0.0 mm
10:30 PM 58.3°F14.6°C 42.7°F5.9°C 56% 8.0 mph SSE12.9 kmh SSE 12.0 mph19.3 kmh 30.09 in1019.0 mb - 0.00 in0.0 mm 0.00 in0.0 mm
11:00 PM 58.0°F14.4°C 42.8°F6.0°C 57% 9.4 mph E15.1 kmh E 14.0 mph22.5 kmh 30.09 in1019.0 mb - 0.00 in0.0 mm 0.00 in0.0 mm
11:30 PM 57.6°F14.2°C 42.9°F6.1°C 58% 10.5 mph SE16.9 kmh SE 16.0 mph25.7 kmh 30.09 in1019.0 mb - 0.00 in0.0 mm 0.00 in0.0 mm